sensor_id;sensor_type;location;lat;lon;timestamp;pressure;altitude;pressure_sealevel;temperature;humidity
8298;BME280;4187;42.778;23.242;2023-02-04T00:01:35;95139.84;;;2.25;100.00
8298;BME280;4187;42.778;23.242;2023-02-04T00:04:02;95143.00;;;2.30;100.00
8298;BME280;4187;42.778;23.242;2023-02-04T00:06:31;95141.69;;;2.37;100.00
8298;BME280;4187;42.778;23.242;2023-02-04T00:08:58;95138.53;;;2.32;100.00
8298;BME280;4187;42.778;23.242;2023-02-04T00:11:25;95131.97;;;2.26;100.00
8298;BME280;4187;42.778;23.242;2023-02-04T00:13:52;95124.75;;;2.30;100.00
8298;BME280;4187;42.778;23.242;2023-02-04T00:16:20;95123.63;;;2.21;100.00
8298;BME280;4187;42.778;23.242;2023-02-04T00:18:47;95123.38;;;2.24;100.00
8298;BME280;4187;42.778;23.242;2023-02-04T00:21:13;95115.38;;;2.27;100.00
8298;BME280;4187;42.778;23.242;2023-02-04T00:23:40;95115.69;;;2.23;100.00
8298;BME280;4187;42.778;23.242;2023-02-04T00:26:07;95107.34;;;2.18;100.00
8298;BME280;4187;42.778;23.242;2023-02-04T00:28:34;95102.34;;;2.15;100.00
8298;BME280;4187;42.778;23.242;2023-02-04T00:31:01;95103.72;;;2.20;100.00
8298;BME280;4187;42.778;23.242;2023-02-04T00:33:29;95102.97;;;2.18;100.00
8298;BME280;4187;42.778;23.242;2023-02-04T00:35:56;95106.19;;;2.22;100.00
8298;BME280;4187;42.778;23.242;2023-02-04T00:38:22;95109.41;;;2.13;100.00
8298;BME280;4187;42.778;23.242;2023-02-04T00:40:49;95112.09;;;2.11;100.00
8298;BME280;4187;42.778;23.242;2023-02-04T00:43:16;95103.03;;;2.04;100.00
8298;BME280;4187;42.778;23.242;2023-02-04T00:45:43;95104.13;;;2.00;100.00
8298;BME280;4187;42.778;23.242;2023-02-04T00:48:10;95094.16;;;1.94;100.00
8298;BME280;4187;42.778;23.242;2023-02-04T00:50:38;95083.94;;;1.91;100.00
8298;BME280;4187;42.778;23.242;2023-02-04T00:53:05;95081.03;;;1.96;100.00
8298;BME280;4187;42.778;23.242;2023-02-04T00:55:32;95063.88;;;1.79;100.00
8298;BME280;4187;42.778;23.242;2023-02-04T00:57:59;95069.97;;;1.92;100.00
8298;BME280;4187;42.778;23.242;2023-02-04T01:00:26;95064.34;;;1.86;100.00
8298;BME280;4187;42.778;23.242;2023-02-04T01:02:52;95060.78;;;1.87;100.00
8298;BME280;4187;42.778;23.242;2023-02-04T01:05:19;95060.91;;;1.85;100.00
8298;BME280;4187;42.778;23.242;2023-02-04T01:07:47;95058.00;;;1.90;100.00
8298;BME280;4187;42.778;23.242;2023-02-04T01:10:14;95064.22;;;1.87;100.00
8298;BME280;4187;42.778;23.242;2023-02-04T01:12:42;95050.59;;;1.84;100.00
8298;BME280;4187;42.778;23.242;2023-02-04T01:15:09;95016.19;;;1.66;100.00
8298;BME280;4187;42.778;23.242;2023-02-04T01:17:36;95047.88;;;1.85;100.00
8298;BME280;4187;42.778;23.242;2023-02-04T01:20:03;95037.47;;;1.85;100.00
8298;BME280;4187;42.778;23.242;2023-02-04T01:22:30;95027.28;;;1.82;100.00
8298;BME280;4187;42.778;23.242;2023-02-04T01:24:58;94972.13;;;1.50;100.00
8298;BME280;4187;42.778;23.242;2023-02-04T01:27:25;95008.88;;;1.85;100.00
8298;BME280;4187;42.778;23.242;2023-02-04T01:29:52;95022.41;;;1.90;100.00
8298;BME280;4187;42.778;23.242;2023-02-04T01:32:19;95020.44;;;1.94;100.00
8298;BME280;4187;42.778;23.242;2023-02-04T01:34:46;95017.72;;;1.95;100.00
8298;BME280;4187;42.778;23.242;2023-02-04T01:37:12;95017.16;;;2.04;100.00
8298;BME280;4187;42.778;23.242;2023-02-04T01:39:39;95017.28;;;2.15;100.00
8298;BME280;4187;42.778;23.242;2023-02-04T01:42:08;95014.47;;;2.18;100.00
8298;BME280;4187;42.778;23.242;2023-02-04T01:44:35;95011.69;;;2.21;100.00
8298;BME280;4187;42.778;23.242;2023-02-04T01:47:01;95004.59;;;2.23;100.00
8298;BME280;4187;42.778;23.242;2023-02-04T01:49:28;95002.41;;;2.30;100.00
8298;BME280;4187;42.778;23.242;2023-02-04T01:51:55;94949.59;;;2.03;100.00
8298;BME280;4187;42.778;23.242;2023-02-04T01:54:24;94990.22;;;2.30;100.00
8298;BME280;4187;42.778;23.242;2023-02-04T01:56:51;94982.59;;;2.27;100.00
8298;BME280;4187;42.778;23.242;2023-02-04T01:59:21;94983.38;;;2.29;100.00
8298;BME280;4187;42.778;23.242;2023-02-04T02:01:49;94982.94;;;2.23;100.00
8298;BME280;4187;42.778;23.242;2023-02-04T02:04:18;94975.00;;;2.24;100.00
8298;BME280;4187;42.778;23.242;2023-02-04T02:06:48;94973.44;;;2.22;100.00
8298;BME280;4187;42.778;23.242;2023-02-04T02:09:15;94972.06;;;2.16;100.00
8298;BME280;4187;42.778;23.242;2023-02-04T02:11:42;94971.16;;;2.17;100.00
8298;BME280;4187;42.778;23.242;2023-02-04T02:14:10;94965.31;;;2.14;100.00
8298;BME280;4187;42.778;23.242;2023-02-04T02:16:38;94963.94;;;2.08;100.00
8298;BME280;4187;42.778;23.242;2023-02-04T02:19:06;94972.56;;;1.96;100.00
8298;BME280;4187;42.778;23.242;2023-02-04T02:21:38;94953.63;;;1.94;100.00
8298;BME280;4187;42.778;23.242;2023-02-04T02:24:26;94932.16;;;1.78;100.00
8298;BME280;4187;42.778;23.242;2023-02-04T02:26:54;94930.50;;;1.90;100.00
8298;BME280;4187;42.778;23.242;2023-02-04T02:29:22;94929.25;;;1.95;100.00
8298;BME280;4187;42.778;23.242;2023-02-04T02:31:49;94911.81;;;1.97;100.00
8298;BME280;4187;42.778;23.242;2023-02-04T02:34:16;94910.13;;;2.09;100.00
8298;BME280;4187;42.778;23.242;2023-02-04T02:36:43;94896.06;;;2.11;100.00
8298;BME280;4187;42.778;23.242;2023-02-04T02:39:10;94885.56;;;2.13;100.00
8298;BME280;4187;42.778;23.242;2023-02-04T02:41:39;94895.34;;;2.09;100.00
8298;BME280;4187;42.778;23.242;2023-02-04T02:44:06;94890.16;;;2.09;100.00
8298;BME280;4187;42.778;23.242;2023-02-04T02:46:33;94883.50;;;2.05;100.00
8298;BME280;4187;42.778;23.242;2023-02-04T02:48:59;94876.72;;;2.03;100.00
8298;BME280;4187;42.778;23.242;2023-02-04T02:51:27;94875.38;;;1.97;100.00
8298;BME280;4187;42.778;23.242;2023-02-04T02:53:54;94865.69;;;1.99;100.00
8298;BME280;4187;42.778;23.242;2023-02-04T02:56:25;94876.19;;;1.98;100.00
8298;BME280;4187;42.778;23.242;2023-02-04T02:58:53;94884.75;;;2.00;100.00
8298;BME280;4187;42.778;23.242;2023-02-04T03:01:20;94868.69;;;1.93;100.00
8298;BME280;4187;42.778;23.242;2023-02-04T03:03:49;94867.97;;;1.91;100.00
8298;BME280;4187;42.778;23.242;2023-02-04T03:06:20;94837.88;;;1.74;100.00
8298;BME280;4187;42.778;23.242;2023-02-04T03:08:52;94876.28;;;2.09;100.00
8298;BME280;4187;42.778;23.242;2023-02-04T03:11:21;94881.63;;;2.07;100.00
8298;BME280;4187;42.778;23.242;2023-02-04T03:13:48;94872.97;;;2.07;100.00
8298;BME280;4187;42.778;23.242;2023-02-04T03:16:17;94855.47;;;1.96;100.00
8298;BME280;4187;42.778;23.242;2023-02-04T03:18:45;94855.81;;;1.92;100.00
8298;BME280;4187;42.778;23.242;2023-02-04T03:21:11;94862.97;;;2.01;100.00
8298;BME280;4187;42.778;23.242;2023-02-04T03:23:38;94857.16;;;1.97;100.00
8298;BME280;4187;42.778;23.242;2023-02-04T03:26:05;94856.63;;;2.05;100.00
8298;BME280;4187;42.778;23.242;2023-02-04T03:28:33;94863.59;;;2.04;100.00
8298;BME280;4187;42.778;23.242;2023-02-04T03:30:59;94857.69;;;2.02;100.00
8298;BME280;4187;42.778;23.242;2023-02-04T03:33:28;94850.72;;;2.03;100.00
8298;BME280;4187;42.778;23.242;2023-02-04T03:35:56;94844.66;;;2.02;100.00
8298;BME280;4187;42.778;23.242;2023-02-04T03:38:23;94840.59;;;1.98;100.00
8298;BME280;4187;42.778;23.242;2023-02-04T03:40:50;94838.72;;;2.13;100.00
8298;BME280;4187;42.778;23.242;2023-02-04T03:43:16;94818.19;;;2.08;100.00
8298;BME280;4187;42.778;23.242;2023-02-04T03:45:43;94836.72;;;2.16;100.00
8298;BME280;4187;42.778;23.242;2023-02-04T03:48:10;94840.16;;;2.17;100.00
8298;BME280;4187;42.778;23.242;2023-02-04T03:50:38;94818.63;;;2.15;100.00
8298;BME280;4187;42.778;23.242;2023-02-04T03:53:05;94820.81;;;2.21;100.00
8298;BME280;4187;42.778;23.242;2023-02-04T03:55:32;94825.69;;;2.25;100.00
8298;BME280;4187;42.778;23.242;2023-02-04T03:57:58;94819.13;;;2.32;100.00
8298;BME280;4187;42.778;23.242;2023-02-04T04:00:25;94825.91;;;2.35;100.00
8298;BME280;4187;42.778;23.242;2023-02-04T04:02:52;94817.78;;;2.27;100.00
8298;BME280;4187;42.778;23.242;2023-02-04T04:05:19;94802.06;;;2.28;100.00
8298;BME280;4187;42.778;23.242;2023-02-04T04:07:47;94803.41;;;2.34;100.00
8298;BME280;4187;42.778;23.242;2023-02-04T04:10:14;94803.50;;;2.32;100.00
8298;BME280;4187;42.778;23.242;2023-02-04T04:12:42;94803.44;;;2.21;100.00
8298;BME280;4187;42.778;23.242;2023-02-04T04:15:09;94797.78;;;2.27;100.00
8298;BME280;4187;42.778;23.242;2023-02-04T04:17:35;94784.66;;;2.16;100.00
8298;BME280;4187;42.778;23.242;2023-02-04T04:20:03;94767.72;;;1.98;100.00
8298;BME280;4187;42.778;23.242;2023-02-04T04:22:30;94787.94;;;2.07;100.00
8298;BME280;4187;42.778;23.242;2023-02-04T04:24:58;94787.31;;;1.91;100.00
8298;BME280;4187;42.778;23.242;2023-02-04T04:27:25;94786.06;;;1.84;100.00
8298;BME280;4187;42.778;23.242;2023-02-04T04:29:51;94809.28;;;2.00;100.00
8298;BME280;4187;42.778;23.242;2023-02-04T04:32:19;94816.44;;;2.09;100.00
8298;BME280;4187;42.778;23.242;2023-02-04T04:34:46;94805.09;;;2.10;100.00
8298;BME280;4187;42.778;23.242;2023-02-04T04:37:12;94802.72;;;2.07;100.00
8298;BME280;4187;42.778;23.242;2023-02-04T04:39:39;94806.66;;;2.12;100.00
8298;BME280;4187;42.778;23.242;2023-02-04T04:42:08;94802.88;;;2.16;100.00
8298;BME280;4187;42.778;23.242;2023-02-04T04:44:34;94813.28;;;2.16;100.00
8298;BME280;4187;42.778;23.242;2023-02-04T04:47:01;94809.06;;;2.15;100.00
8298;BME280;4187;42.778;23.242;2023-02-04T04:49:28;94811.94;;;2.23;100.00
8298;BME280;4187;42.778;23.242;2023-02-04T04:51:55;94806.25;;;2.18;100.00
8298;BME280;4187;42.778;23.242;2023-02-04T04:54:21;94820.59;;;2.24;100.00
8298;BME280;4187;42.778;23.242;2023-02-04T04:56:48;94820.28;;;2.28;100.00
8298;BME280;4187;42.778;23.242;2023-02-04T04:59:16;94825.78;;;2.36;100.00
8298;BME280;4187;42.778;23.242;2023-02-04T05:01:43;94820.88;;;2.45;100.00
8298;BME280;4187;42.778;23.242;2023-02-04T05:04:10;94815.25;;;2.38;100.00
8298;BME280;4187;42.778;23.242;2023-02-04T05:06:36;94826.50;;;2.38;100.00
8298;BME280;4187;42.778;23.242;2023-02-04T05:09:03;94834.44;;;2.37;100.00
8298;BME280;4187;42.778;23.242;2023-02-04T05:11:30;94828.41;;;2.24;100.00
8298;BME280;4187;42.778;23.242;2023-02-04T05:13:57;94848.59;;;2.33;100.00
8298;BME280;4187;42.778;23.242;2023-02-04T05:16:25;94848.72;;;2.19;100.00
8298;BME280;4187;42.778;23.242;2023-02-04T05:18:52;94859.75;;;2.35;100.00
8298;BME280;4187;42.778;23.242;2023-02-04T05:21:19;94868.06;;;2.40;100.00
8298;BME280;4187;42.778;23.242;2023-02-04T05:23:45;94863.38;;;2.45;100.00
8298;BME280;4187;42.778;23.242;2023-02-04T05:26:12;94849.50;;;2.45;100.00
8298;BME280;4187;42.778;23.242;2023-02-04T05:28:39;94883.03;;;2.62;100.00
8298;BME280;4187;42.778;23.242;2023-02-04T05:31:06;94867.91;;;2.67;100.00
8298;BME280;4187;42.778;23.242;2023-02-04T05:33:34;94876.88;;;2.75;100.00
8298;BME280;4187;42.778;23.242;2023-02-04T05:36:01;94880.19;;;2.77;100.00
8298;BME280;4187;42.778;23.242;2023-02-04T05:38:28;94864.34;;;2.80;100.00
8298;BME280;4187;42.778;23.242;2023-02-04T05:40:55;94860.91;;;2.80;100.00
8298;BME280;4187;42.778;23.242;2023-02-04T05:43:21;94862.78;;;2.78;100.00
8298;BME280;4187;42.778;23.242;2023-02-04T05:45:48;94856.81;;;2.76;100.00
8298;BME280;4187;42.778;23.242;2023-02-04T05:48:15;94859.34;;;2.77;100.00
8298;BME280;4187;42.778;23.242;2023-02-04T05:50:43;94845.38;;;2.78;100.00
8298;BME280;4187;42.778;23.242;2023-02-04T05:53:10;94835.56;;;2.82;100.00
8298;BME280;4187;42.778;23.242;2023-02-04T05:55:36;94836.81;;;2.76;100.00
8298;BME280;4187;42.778;23.242;2023-02-04T05:58:03;94847.38;;;2.75;100.00
8298;BME280;4187;42.778;23.242;2023-02-04T06:00:30;94855.19;;;2.75;100.00
8298;BME280;4187;42.778;23.242;2023-02-04T06:02:57;94852.56;;;2.75;100.00
8298;BME280;4187;42.778;23.242;2023-02-04T06:05:24;94860.47;;;2.73;100.00
8298;BME280;4187;42.778;23.242;2023-02-04T06:07:52;94858.63;;;2.75;100.00
8298;BME280;4187;42.778;23.242;2023-02-04T06:10:19;94873.72;;;2.83;100.00
8298;BME280;4187;42.778;23.242;2023-02-04T06:12:46;94870.06;;;2.85;100.00
8298;BME280;4187;42.778;23.242;2023-02-04T06:15:13;94859.50;;;2.87;100.00
8298;BME280;4187;42.778;23.242;2023-02-04T06:17:40;94864.41;;;2.91;100.00
8298;BME280;4187;42.778;23.242;2023-02-04T06:20:08;94854.06;;;3.03;100.00
8298;BME280;4187;42.778;23.242;2023-02-04T06:22:36;94859.84;;;3.06;100.00
8298;BME280;4187;42.778;23.242;2023-02-04T06:25:05;94858.53;;;3.00;100.00
8298;BME280;4187;42.778;23.242;2023-02-04T06:27:32;94856.66;;;3.03;100.00
8298;BME280;4187;42.778;23.242;2023-02-04T06:29:59;94871.34;;;3.03;100.00
8298;BME280;4187;42.778;23.242;2023-02-04T06:32:25;94873.78;;;3.18;100.00
8298;BME280;4187;42.778;23.242;2023-02-04T06:34:52;94879.41;;;3.24;100.00
8298;BME280;4187;42.778;23.242;2023-02-04T06:37:19;94882.19;;;3.34;100.00
8298;BME280;4187;42.778;23.242;2023-02-04T06:39:46;94882.31;;;3.43;100.00
8298;BME280;4187;42.778;23.242;2023-02-04T06:42:14;94884.84;;;3.45;100.00
8298;BME280;4187;42.778;23.242;2023-02-04T06:44:40;94880.13;;;3.50;100.00
8298;BME280;4187;42.778;23.242;2023-02-04T06:47:07;94882.50;;;3.53;100.00
8298;BME280;4187;42.778;23.242;2023-02-04T06:49:34;94856.81;;;3.36;100.00
8298;BME280;4187;42.778;23.242;2023-02-04T06:52:01;94882.50;;;3.53;100.00
8298;BME280;4187;42.778;23.242;2023-02-04T06:54:28;94888.81;;;3.61;100.00
8298;BME280;4187;42.778;23.242;2023-02-04T06:56:54;94885.72;;;3.56;100.00
8298;BME280;4187;42.778;23.242;2023-02-04T06:59:29;94882.59;;;3.51;100.00
8298;BME280;4187;42.778;23.242;2023-02-04T07:01:57;94882.31;;;3.67;100.00
8298;BME280;4187;42.778;23.242;2023-02-04T07:04:24;94885.47;;;3.83;100.00
8298;BME280;4187;42.778;23.242;2023-02-04T07:06:51;94885.41;;;4.07;100.00
8298;BME280;4187;42.778;23.242;2023-02-04T07:09:17;94885.69;;;4.37;100.00
8298;BME280;4187;42.778;23.242;2023-02-04T07:11:44;94885.56;;;4.50;100.00
8298;BME280;4187;42.778;23.242;2023-02-04T07:14:11;94889.50;;;4.55;100.00
8298;BME280;4187;42.778;23.242;2023-02-04T07:16:39;94885.09;;;4.56;100.00
8298;BME280;4187;42.778;23.242;2023-02-04T07:19:06;94877.97;;;4.69;100.00
8298;BME280;4187;42.778;23.242;2023-02-04T07:21:33;94868.69;;;4.98;100.00
8298;BME280;4187;42.778;23.242;2023-02-04T07:24:00;94849.97;;;5.14;100.00
8298;BME280;4187;42.778;23.242;2023-02-04T07:26:27;94869.59;;;5.62;100.00
8298;BME280;4187;42.778;23.242;2023-02-04T07:28:53;94798.78;;;5.43;100.00
8298;BME280;4187;42.778;23.242;2023-02-04T07:31:20;94872.59;;;6.10;100.00
8298;BME280;4187;42.778;23.242;2023-02-04T07:33:49;94873.00;;;6.36;100.00
8298;BME280;4187;42.778;23.242;2023-02-04T07:36:15;94873.34;;;6.42;100.00
8298;BME280;4187;42.778;23.242;2023-02-04T07:38:42;94858.75;;;6.49;100.00
8298;BME280;4187;42.778;23.242;2023-02-04T07:41:09;94871.19;;;6.57;100.00
8298;BME280;4187;42.778;23.242;2023-02-04T07:43:36;94873.44;;;6.61;100.00
8298;BME280;4187;42.778;23.242;2023-02-04T07:46:02;94855.03;;;6.52;100.00
8298;BME280;4187;42.778;23.242;2023-02-04T07:48:29;94857.84;;;6.30;100.00
8298;BME280;4187;42.778;23.242;2023-02-04T07:50:57;94863.50;;;6.35;100.00
8298;BME280;4187;42.778;23.242;2023-02-04T07:53:24;94849.31;;;6.68;100.00
8298;BME280;4187;42.778;23.242;2023-02-04T07:55:51;94857.66;;;7.41;100.00
8298;BME280;4187;42.778;23.242;2023-02-04T07:58:18;94836.47;;;8.38;100.00
8298;BME280;4187;42.778;23.242;2023-02-04T08:00:45;94856.06;;;8.73;100.00
8298;BME280;4187;42.778;23.242;2023-02-04T08:03:11;94875.97;;;9.57;100.00
8298;BME280;4187;42.778;23.242;2023-02-04T08:05:38;94872.09;;;10.14;100.00
8298;BME280;4187;42.778;23.242;2023-02-04T08:08:06;94870.09;;;10.77;100.00
8298;BME280;4187;42.778;23.242;2023-02-04T08:10:33;94875.09;;;10.37;93.28
8298;BME280;4187;42.778;23.242;2023-02-04T08:13:00;94874.09;;;9.49;94.53
8298;BME280;4187;42.778;23.242;2023-02-04T08:15:27;94870.91;;;8.64;97.84
8298;BME280;4187;42.778;23.242;2023-02-04T08:17:53;94861.59;;;7.95;100.00
8298;BME280;4187;42.778;23.242;2023-02-04T08:20:20;94866.25;;;7.43;100.00
8298;BME280;4187;42.778;23.242;2023-02-04T08:22:47;94858.13;;;7.06;100.00
8298;BME280;4187;42.778;23.242;2023-02-04T08:25:15;94869.91;;;6.72;100.00
8298;BME280;4187;42.778;23.242;2023-02-04T08:27:42;94853.41;;;6.60;100.00
8298;BME280;4187;42.778;23.242;2023-02-04T08:30:10;94849.88;;;6.41;100.00
8298;BME280;4187;42.778;23.242;2023-02-04T08:32:37;94857.25;;;6.26;100.00
8298;BME280;4187;42.778;23.242;2023-02-04T08:35:05;94844.16;;;6.06;100.00
8298;BME280;4187;42.778;23.242;2023-02-04T08:37:32;94858.72;;;5.98;100.00
8298;BME280;4187;42.778;23.242;2023-02-04T08:39:59;94853.44;;;5.89;100.00
8298;BME280;4187;42.778;23.242;2023-02-04T08:42:28;94850.84;;;5.78;100.00
8298;BME280;4187;42.778;23.242;2023-02-04T08:44:54;94855.28;;;5.66;100.00
8298;BME280;4187;42.778;23.242;2023-02-04T08:47:21;94855.91;;;5.59;100.00
8298;BME280;4187;42.778;23.242;2023-02-04T08:49:48;94865.41;;;5.60;100.00
8298;BME280;4187;42.778;23.242;2023-02-04T08:52:15;94847.72;;;5.52;100.00
8298;BME280;4187;42.778;23.242;2023-02-04T08:54:42;94850.25;;;5.42;100.00
8298;BME280;4187;42.778;23.242;2023-02-04T08:57:08;94838.28;;;5.29;100.00
8298;BME280;4187;42.778;23.242;2023-02-04T08:59:37;94848.53;;;5.32;100.00
8298;BME280;4187;42.778;23.242;2023-02-04T09:02:03;94842.31;;;5.33;100.00
8298;BME280;4187;42.778;23.242;2023-02-04T09:04:30;94850.69;;;5.27;100.00
8298;BME280;4187;42.778;23.242;2023-02-04T09:06:57;94846.66;;;5.12;100.00
8298;BME280;4187;42.778;23.242;2023-02-04T09:09:24;94833.59;;;5.12;100.00
8298;BME280;4187;42.778;23.242;2023-02-04T09:11:51;94839.06;;;5.09;100.00
8298;BME280;4187;42.778;23.242;2023-02-04T09:14:17;94805.94;;;4.87;100.00
8298;BME280;4187;42.778;23.242;2023-02-04T09:16:46;94799.41;;;4.93;100.00
8298;BME280;4187;42.778;23.242;2023-02-04T09:19:13;94844.25;;;5.20;100.00
8298;BME280;4187;42.778;23.242;2023-02-04T09:21:41;94830.03;;;5.13;100.00
8298;BME280;4187;42.778;23.242;2023-02-04T09:24:07;94842.47;;;5.20;100.00
8298;BME280;4187;42.778;23.242;2023-02-04T09:26:34;94843.19;;;5.22;100.00
8298;BME280;4187;42.778;23.242;2023-02-04T09:29:01;94843.84;;;5.35;100.00
8298;BME280;4187;42.778;23.242;2023-02-04T09:31:28;94850.38;;;5.41;100.00
8298;BME280;4187;42.778;23.242;2023-02-04T09:33:56;94846.34;;;5.37;100.00
8298;BME280;4187;42.778;23.242;2023-02-04T09:36:24;94848.59;;;5.41;100.00
8298;BME280;4187;42.778;23.242;2023-02-04T09:38:55;94848.34;;;5.44;100.00
8298;BME280;4187;42.778;23.242;2023-02-04T09:41:22;94833.59;;;5.43;100.00
8298;BME280;4187;42.778;23.242;2023-02-04T09:43:48;94829.34;;;5.42;100.00
8298;BME280;4187;42.778;23.242;2023-02-04T09:46:18;94830.81;;;5.56;100.00
8298;BME280;4187;42.778;23.242;2023-02-04T09:48:46;94828.41;;;5.64;100.00
8298;BME280;4187;42.778;23.242;2023-02-04T09:51:17;94799.13;;;5.38;100.00
8298;BME280;4187;42.778;23.242;2023-02-04T09:53:46;94833.53;;;5.34;100.00
8298;BME280;4187;42.778;23.242;2023-02-04T09:56:14;94822.41;;;5.21;100.00
8298;BME280;4187;42.778;23.242;2023-02-04T09:58:41;94819.09;;;5.08;100.00
8298;BME280;4187;42.778;23.242;2023-02-04T10:01:11;94827.44;;;5.02;100.00
8298;BME280;4187;42.778;23.242;2023-02-04T10:03:40;94820.66;;;4.99;100.00
8298;BME280;4187;42.778;23.242;2023-02-04T10:06:11;94813.56;;;4.79;100.00
8298;BME280;4187;42.778;23.242;2023-02-04T10:08:40;94814.19;;;4.71;100.00
8298;BME280;4187;42.778;23.242;2023-02-04T10:11:08;94804.94;;;4.67;100.00
8298;BME280;4187;42.778;23.242;2023-02-04T10:13:37;94800.78;;;4.65;100.00
8298;BME280;4187;42.778;23.242;2023-02-04T10:16:12;94772.38;;;4.49;100.00
8298;BME280;4187;42.778;23.242;2023-02-04T10:18:40;94798.63;;;4.59;100.00
8298;BME280;4187;42.778;23.242;2023-02-04T10:21:13;94794.38;;;4.47;100.00
8298;BME280;4187;42.778;23.242;2023-02-04T10:23:44;94787.00;;;4.41;100.00
8298;BME280;4187;42.778;23.242;2023-02-04T10:26:13;94791.66;;;4.37;100.00
8298;BME280;4187;42.778;23.242;2023-02-04T10:28:40;94775.84;;;4.28;100.00
8298;BME280;4187;42.778;23.242;2023-02-04T10:31:27;94779.06;;;4.20;100.00
8298;BME280;4187;42.778;23.242;2023-02-04T10:34:02;94772.66;;;4.13;100.00
8298;BME280;4187;42.778;23.242;2023-02-04T10:36:29;94767.53;;;4.00;100.00
8298;BME280;4187;42.778;23.242;2023-02-04T10:39:02;94773.81;;;3.98;100.00
8298;BME280;4187;42.778;23.242;2023-02-04T10:41:29;94766.22;;;3.95;100.00
8298;BME280;4187;42.778;23.242;2023-02-04T10:44:05;94774.19;;;4.04;100.00
8298;BME280;4187;42.778;23.242;2023-02-04T10:46:32;94770.38;;;4.08;100.00
8298;BME280;4187;42.778;23.242;2023-02-04T10:48:59;94768.84;;;4.06;100.00
8298;BME280;4187;42.778;23.242;2023-02-04T10:51:27;94765.16;;;4.08;100.00
8298;BME280;4187;42.778;23.242;2023-02-04T10:53:54;94764.00;;;4.12;100.00
8298;BME280;4187;42.778;23.242;2023-02-04T10:56:40;94723.41;;;3.86;100.00
8298;BME280;4187;42.778;23.242;2023-02-04T10:59:15;94762.44;;;4.10;100.00
8298;BME280;4187;42.778;23.242;2023-02-04T11:01:46;94763.28;;;4.10;100.00
8298;BME280;4187;42.778;23.242;2023-02-04T11:04:13;94758.41;;;4.17;100.00
8298;BME280;4187;42.778;23.242;2023-02-04T11:06:40;94770.75;;;4.26;100.00
8298;BME280;4187;42.778;23.242;2023-02-04T11:09:11;94712.00;;;3.98;100.00
8298;BME280;4187;42.778;23.242;2023-02-04T11:11:44;94758.63;;;4.25;100.00
8298;BME280;4187;42.778;23.242;2023-02-04T11:14:23;94745.94;;;4.20;100.00
8298;BME280;4187;42.778;23.242;2023-02-04T11:16:53;94706.56;;;3.90;100.00
8298;BME280;4187;42.778;23.242;2023-02-04T11:19:36;94750.25;;;4.21;100.00
8298;BME280;4187;42.778;23.242;2023-02-04T11:22:06;94742.03;;;4.26;100.00
8298;BME280;4187;42.778;23.242;2023-02-04T11:24:33;94749.72;;;4.28;100.00
8298;BME280;4187;42.778;23.242;2023-02-04T11:27:19;94750.25;;;4.21;100.00
8298;BME280;4187;42.778;23.242;2023-02-04T11:29:47;94749.16;;;4.24;100.00
8298;BME280;4187;42.778;23.242;2023-02-04T11:32:30;94752.25;;;4.29;100.00
8298;BME280;4187;42.778;23.242;2023-02-04T11:35:21;94747.50;;;4.23;100.00
8298;BME280;4187;42.778;23.242;2023-02-04T11:37:48;94744.50;;;4.28;100.00
8298;BME280;4187;42.778;23.242;2023-02-04T11:40:26;94747.34;;;4.36;100.00
8298;BME280;4187;42.778;23.242;2023-02-04T11:43:07;94741.78;;;4.40;100.00
8298;BME280;4187;42.778;23.242;2023-02-04T11:45:37;94735.13;;;4.47;100.00
8298;BME280;4187;42.778;23.242;2023-02-04T11:48:11;94737.72;;;4.58;100.00
8298;BME280;4187;42.778;23.242;2023-02-04T11:50:40;94728.09;;;4.59;100.00
8298;BME280;4187;42.778;23.242;2023-02-04T11:53:09;94744.47;;;4.61;100.00
8298;BME280;4187;42.778;23.242;2023-02-04T11:55:42;94741.25;;;4.57;100.00
8298;BME280;4187;42.778;23.242;2023-02-04T11:58:13;94731.78;;;4.56;100.00
8298;BME280;4187;42.778;23.242;2023-02-04T12:00:40;94726.19;;;4.61;100.00
8298;BME280;4187;42.778;23.242;2023-02-04T12:03:23;94729.16;;;4.56;100.00
8298;BME280;4187;42.778;23.242;2023-02-04T12:05:50;94724.78;;;4.57;100.00
8298;BME280;4187;42.778;23.242;2023-02-04T12:08:29;94725.56;;;4.68;100.00
8298;BME280;4187;42.778;23.242;2023-02-04T12:11:05;94728.41;;;4.65;100.00
8298;BME280;4187;42.778;23.242;2023-02-04T12:13:45;94721.66;;;4.63;100.00
8298;BME280;4187;42.778;23.242;2023-02-04T12:16:14;94698.19;;;4.41;100.00
8298;BME280;4187;42.778;23.242;2023-02-04T12:18:40;94727.97;;;4.60;100.00
8298;BME280;4187;42.778;23.242;2023-02-04T12:21:07;94726.19;;;4.61;100.00
8298;BME280;4187;42.778;23.242;2023-02-04T12:23:34;94723.22;;;4.54;100.00
8298;BME280;4187;42.778;23.242;2023-02-04T12:26:01;94718.81;;;4.55;100.00
8298;BME280;4187;42.778;23.242;2023-02-04T12:28:28;94717.28;;;4.52;100.00
8298;BME280;4187;42.778;23.242;2023-02-04T12:30:56;94717.41;;;4.51;100.00
8298;BME280;4187;42.778;23.242;2023-02-04T12:33:23;94715.72;;;4.61;100.00
8298;BME280;4187;42.778;23.242;2023-02-04T12:35:50;94707.19;;;4.59;100.00
8298;BME280;4187;42.778;23.242;2023-02-04T12:38:16;94708.47;;;4.64;100.00
8298;BME280;4187;42.778;23.242;2023-02-04T12:40:44;94705.63;;;4.67;100.00
8298;BME280;4187;42.778;23.242;2023-02-04T12:43:10;94704.31;;;4.73;100.00
8298;BME280;4187;42.778;23.242;2023-02-04T12:45:37;94704.25;;;4.84;100.00
8298;BME280;4187;42.778;23.242;2023-02-04T12:48:11;94662.63;;;4.60;100.00
8298;BME280;4187;42.778;23.242;2023-02-04T12:50:38;94702.34;;;4.86;100.00
8298;BME280;4187;42.778;23.242;2023-02-04T12:53:05;94712.44;;;4.91;100.00
8298;BME280;4187;42.778;23.242;2023-02-04T12:55:31;94716.72;;;4.92;100.00
8298;BME280;4187;42.778;23.242;2023-02-04T12:57:58;94709.34;;;4.86;100.00
8298;BME280;4187;42.778;23.242;2023-02-04T13:00:25;94710.53;;;4.81;100.00
8298;BME280;4187;42.778;23.242;2023-02-04T13:02:52;94711.53;;;4.80;100.00
8298;BME280;4187;42.778;23.242;2023-02-04T13:05:21;94718.28;;;4.83;100.00
8298;BME280;4187;42.778;23.242;2023-02-04T13:07:48;94712.81;;;4.86;100.00
8298;BME280;4187;42.778;23.242;2023-02-04T13:10:15;94716.94;;;4.89;100.00
8298;BME280;4187;42.778;23.242;2023-02-04T13:12:42;94704.50;;;4.81;100.00
8298;BME280;4187;42.778;23.242;2023-02-04T13:15:09;94724.44;;;4.82;100.00